Terminal Aerodrome Forecast
Issued by NWS

Home | Current Version | Previous Version | Text Only | Print | Product List | Glossary On
Versions: 1 2 3 4 5 6 7 8 9 10 11 12 13 14 15 16 17 18 19 20 21 22 23 24 25
000
FTUS43 KMKX 062100 AAA
TAFENW
TAF AMD
KENW 062100Z 0621/0718 26011G19KT P6SM FEW150
     FM070500 25006KT P6SM VCSH SCT100 WS015/28035KT
     FM070900 27012KT P6SM SCT070 SCT110
     FM071200 30013KT P6SM VCSH SCT050 BKN120
     FM071500 01015G26KT P6SM BKN050=

USA.gov is the U.S. government's official web portal to all federal, state and local government web resources and services.